createdAt,value
2022-11-05T00:02:17.916Z,97.82
2022-11-05T00:05:04.976Z,96.78
2022-11-05T00:08:09.979Z,96.26
2022-11-05T00:10:41.273Z,95.86
2022-11-05T00:13:31.605Z,95.47
2022-11-05T00:16:18.684Z,95.64
2022-11-05T00:19:06.810Z,95.40
2022-11-05T00:21:55.725Z,96.35
2022-11-05T00:24:43.795Z,95.66
2022-11-05T00:27:14.017Z,95.79
2022-11-05T00:29:45.412Z,95.86
2022-11-05T00:32:15.292Z,95.78
2022-11-05T00:34:45.193Z,95.55
2022-11-05T00:37:15.157Z,95.89
2022-11-05T00:39:44.976Z,96.02
2022-11-05T00:42:32.153Z,95.77
2022-11-05T00:45:03.541Z,95.78
2022-11-05T00:51:18.561Z,95.99
2022-11-05T00:53:48.403Z,96.26
2022-11-05T00:56:18.298Z,96.34
2022-11-05T00:58:49.219Z,96.04
2022-11-05T01:01:19.806Z,95.56
2022-11-05T01:03:51.870Z,96.10
2022-11-05T01:06:23.610Z,96.24
2022-11-05T01:08:53.694Z,95.83
2022-11-05T01:11:34.545Z,95.81
2022-11-05T01:14:08.006Z,96.38
2022-11-05T01:16:38.746Z,96.27
2022-11-05T01:19:11.087Z,96.56
2022-11-05T01:21:42.444Z,95.87
2022-11-05T01:24:13.582Z,96.03
2022-11-05T01:26:43.373Z,96.16
2022-11-05T01:29:14.302Z,95.93
2022-11-05T01:31:44.228Z,95.69
2022-11-05T01:34:14.347Z,95.48
2022-11-05T01:36:45.784Z,96.29
2022-11-05T01:39:15.993Z,95.85
2022-11-05T01:41:46.149Z,96.57
2022-11-05T01:44:56.456Z,96.13
2022-11-05T01:47:39.674Z,95.66
2022-11-05T01:50:24.797Z,95.75
2022-11-05T01:53:02.775Z,95.60
2022-11-05T01:55:38.733Z,95.57
2022-11-05T01:58:13.165Z,95.36
2022-11-05T02:00:45.025Z,95.69
2022-11-05T02:03:17.869Z,95.65
2022-11-05T02:05:48.663Z,95.39
2022-11-05T02:08:44.230Z,95.24
2022-11-05T02:11:17.641Z,95.21
2022-11-05T02:13:49.887Z,95.19
2022-11-05T02:16:35.652Z,95.42
2022-11-05T02:19:46.113Z,94.59
2022-11-05T02:23:07.458Z,94.94
2022-11-05T02:26:23.965Z,95.80
2022-11-05T02:30:01.682Z,95.36
2022-11-05T02:33:04.793Z,96.04
2022-11-05T02:36:00.354Z,95.41
2022-11-05T02:38:42.330Z,95.58
2022-11-05T02:41:24.294Z,95.95
2022-11-05T02:44:09.033Z,96.09
2022-11-05T02:46:48.388Z,95.95
2022-11-05T02:49:34.557Z,96.25
2022-11-05T02:52:08.680Z,96.54
2022-11-05T02:54:45.701Z,96.34
2022-11-05T02:57:15.554Z,96.37
2022-11-05T02:59:45.505Z,96.65
2022-11-05T03:02:15.937Z,96.63
2022-11-05T03:04:47.457Z,96.64
2022-11-05T03:07:36.680Z,96.92
2022-11-05T03:10:44.818Z,97.52
2022-11-05T03:13:23.974Z,97.21
2022-11-05T03:16:00.858Z,96.56
2022-11-05T03:18:42.645Z,96.05
2022-11-05T03:21:22.134Z,96.17
2022-11-05T03:23:59.677Z,96.86
2022-11-05T03:26:33.893Z,96.29
2022-11-05T03:29:08.884Z,95.79
2022-11-05T03:31:42.342Z,96.22
2022-11-05T03:34:15.525Z,96.18
2022-11-05T03:36:50.685Z,96.88
2022-11-05T03:39:26.297Z,96.88
2022-11-05T03:41:59.376Z,96.78
2022-11-05T03:44:34.761Z,96.65
2022-11-05T03:47:09.163Z,96.89
2022-11-05T03:52:21.721Z,96.58
2022-11-05T03:54:51.680Z,96.16
2022-11-05T03:57:27.697Z,96.39
2022-11-05T03:59:57.541Z,96.33
2022-11-05T04:02:29.501Z,95.72
2022-11-05T04:04:59.500Z,95.85
2022-11-05T04:07:53.445Z,96.41
2022-11-05T04:10:40.685Z,96.54
2022-11-05T04:13:25.871Z,96.34
2022-11-05T04:16:14.232Z,96.71
2022-11-05T04:18:44.596Z,96.22
2022-11-05T04:21:31.652Z,95.99
2022-11-05T04:24:11.742Z,96.05
2022-11-05T04:26:44.785Z,96.09
2022-11-05T04:29:31.736Z,95.92
2022-11-05T04:32:01.684Z,95.99
2022-11-05T04:34:31.627Z,96.75
2022-11-05T04:37:01.542Z,96.82
2022-11-05T04:39:32.904Z,97.36
2022-11-05T04:42:02.847Z,97.41
2022-11-05T04:44:32.768Z,96.95
2022-11-05T04:47:02.617Z,96.52
2022-11-05T04:49:32.596Z,96.32
2022-11-05T04:52:02.460Z,95.99
2022-11-05T04:54:33.934Z,96.20
2022-11-05T04:57:03.819Z,95.66
2022-11-05T04:59:33.654Z,96.46
2022-11-05T05:02:03.788Z,97.79
2022-11-05T05:04:33.696Z,97.49
2022-11-05T05:07:03.774Z,96.39
2022-11-05T05:09:35.156Z,96.97
2022-11-05T05:12:05.279Z,96.40
2022-11-05T05:14:35.156Z,98.13
2022-11-05T05:17:04.977Z,97.46
2022-11-05T05:19:55.080Z,96.46
2022-11-05T05:22:23.843Z,96.97
2022-11-05T05:24:55.982Z,97.13
2022-11-05T05:27:26.353Z,96.31
2022-11-05T05:29:56.224Z,96.06
2022-11-05T05:32:26.849Z,96.38
2022-11-05T05:34:56.826Z,96.76
2022-11-05T05:37:26.869Z,96.26
2022-11-05T05:39:58.173Z,96.05
2022-11-05T05:42:28.162Z,96.70
2022-11-05T05:44:57.941Z,96.62
2022-11-05T05:47:27.817Z,96.27
2022-11-05T05:49:57.676Z,96.69
2022-11-05T05:52:27.593Z,96.83
2022-11-05T05:54:59.113Z,96.23
2022-11-05T05:57:28.952Z,97.09
2022-11-05T05:59:58.896Z,96.95
2022-11-05T06:02:29.048Z,97.08
2022-11-05T06:04:58.997Z,97.55
2022-11-05T06:07:31.868Z,98.25
2022-11-05T06:10:08.733Z,97.82
2022-11-05T06:12:38.493Z,97.64
2022-11-05T06:15:09.768Z,97.71
2022-11-05T06:17:39.605Z,97.93
2022-11-05T06:20:11.156Z,98.21
2022-11-05T06:22:41.633Z,98.62
2022-11-05T06:25:13.737Z,98.47
2022-11-05T06:27:43.733Z,99.23
2022-11-05T06:30:14.888Z,99.41
2022-11-05T06:32:44.872Z,99.57
2022-11-05T06:35:14.823Z,100.00
2022-11-05T06:37:44.734Z,100.00
2022-11-05T06:40:16.359Z,100.00
2022-11-05T06:42:46.176Z,100.00
2022-11-05T06:45:16.387Z,100.00
2022-11-05T06:47:46.299Z,100.00
2022-11-05T06:52:19.223Z,100.00
2022-11-05T06:54:49.100Z,100.00
2022-11-05T06:57:18.979Z,100.00
2022-11-05T06:59:48.871Z,100.00
2022-11-05T07:02:18.953Z,100.00
2022-11-05T07:04:48.872Z,100.00
2022-11-05T07:07:20.227Z,100.00
2022-11-05T07:09:50.219Z,100.00
2022-11-05T07:12:20.084Z,100.00
2022-11-05T07:14:50.135Z,100.00
2022-11-05T07:17:20.592Z,100.00
2022-11-05T07:19:50.546Z,100.00
2022-11-05T07:22:22.012Z,100.00
2022-11-05T07:24:51.933Z,98.94
2022-11-05T07:27:22.004Z,97.40
2022-11-05T07:29:51.948Z,95.69
2022-11-05T07:32:21.953Z,94.95
2022-11-05T07:34:51.915Z,93.43
2022-11-05T07:37:23.316Z,92.13
2022-11-05T07:39:53.260Z,91.30
2022-11-05T07:42:23.051Z,90.32
2022-11-05T07:44:52.871Z,89.47
2022-11-05T07:47:22.700Z,87.69
2022-11-05T07:49:52.561Z,86.66
2022-11-05T07:52:24.150Z,85.52
2022-11-05T07:54:54.077Z,84.19
2022-11-05T07:57:24.100Z,83.31
2022-11-05T07:59:54.036Z,81.94
2022-11-05T08:02:24.205Z,81.64
2022-11-05T08:04:54.412Z,80.99
2022-11-05T08:07:25.912Z,79.86
2022-11-05T08:09:55.741Z,79.46
2022-11-05T08:12:25.722Z,79.27
2022-11-05T08:14:55.669Z,78.78
2022-11-05T08:17:25.776Z,77.83
2022-11-05T08:19:55.888Z,76.85
2022-11-05T08:22:27.266Z,77.22
2022-11-05T08:24:58.092Z,75.77
2022-11-05T08:27:30.277Z,75.04
2022-11-05T08:30:00.158Z,75.53
2022-11-05T08:32:30.130Z,74.62
2022-11-05T08:34:59.905Z,73.81
2022-11-05T08:37:31.425Z,74.24
2022-11-05T08:40:01.256Z,72.29
2022-11-05T08:42:31.421Z,72.50
2022-11-05T08:45:01.293Z,71.23
2022-11-05T08:47:32.117Z,71.76
2022-11-05T08:50:02.022Z,69.83
2022-11-05T08:52:33.437Z,70.05
2022-11-05T08:55:03.340Z,69.80
2022-11-05T08:57:33.315Z,70.48
2022-11-05T09:00:03.238Z,69.82
2022-11-05T09:02:35.967Z,68.88
2022-11-05T09:05:06.515Z,68.40
2022-11-05T09:07:37.955Z,68.29
2022-11-05T09:10:09.261Z,68.06
2022-11-05T09:12:39.352Z,65.47
2022-11-05T09:15:10.913Z,65.31
2022-11-05T09:17:41.594Z,65.00
2022-11-05T09:20:14.147Z,65.52
2022-11-05T09:22:46.709Z,65.15
2022-11-05T09:25:17.030Z,64.88
2022-11-05T09:27:47.639Z,65.69
2022-11-05T09:30:18.091Z,65.06
2022-11-05T09:32:48.628Z,65.40
2022-11-05T09:35:18.675Z,64.94
2022-11-05T09:37:50.138Z,64.97
2022-11-05T09:40:21.604Z,64.15
2022-11-05T09:42:55.402Z,64.43
2022-11-05T09:45:27.541Z,63.69
2022-11-05T09:48:02.994Z,64.48
2022-11-05T09:52:23.401Z,64.46
2022-11-05T09:54:53.415Z,63.39
2022-11-05T09:57:29.460Z,62.07
2022-11-05T10:00:04.002Z,63.94
2022-11-05T10:02:39.593Z,63.79
2022-11-05T10:05:15.145Z,64.44
2022-11-05T10:07:51.238Z,65.67
2022-11-05T10:10:40.835Z,65.70
2022-11-05T10:13:24.003Z,65.74
2022-11-05T10:16:02.319Z,64.94
2022-11-05T10:18:36.508Z,63.41
2022-11-05T10:21:07.396Z,65.10
2022-11-05T10:23:39.806Z,64.66
2022-11-05T10:26:15.406Z,65.37
2022-11-05T10:28:45.373Z,66.56
2022-11-05T10:31:21.354Z,65.83
2022-11-05T10:33:56.316Z,66.41
2022-11-05T10:36:28.488Z,66.21
2022-11-05T10:39:03.939Z,66.74
2022-11-05T10:41:54.250Z,66.61
2022-11-05T10:44:34.845Z,66.75
2022-11-05T10:47:32.683Z,66.72
2022-11-05T10:50:10.593Z,66.38
2022-11-05T10:52:47.881Z,67.39
2022-11-05T10:55:25.606Z,67.52
2022-11-05T10:57:57.560Z,68.17
2022-11-05T11:00:30.441Z,66.87
2022-11-05T11:03:04.306Z,66.67
2022-11-05T11:05:38.336Z,66.72
2022-11-05T11:08:25.945Z,66.24
2022-11-05T11:11:03.378Z,67.57
2022-11-05T11:13:53.752Z,67.08
2022-11-05T11:16:26.210Z,66.32
2022-11-05T11:18:58.836Z,66.03
2022-11-05T11:21:29.607Z,65.42
2022-11-05T11:24:03.237Z,65.19
2022-11-05T11:26:37.958Z,63.17
2022-11-05T11:29:14.121Z,61.40
2022-11-05T11:31:44.754Z,62.05
2022-11-05T11:34:25.016Z,63.23
2022-11-05T11:37:00.964Z,64.13
2022-11-05T11:39:32.939Z,63.86
2022-11-05T11:42:13.341Z,62.75
2022-11-05T11:44:47.798Z,62.37
2022-11-05T11:47:22.700Z,63.52
2022-11-05T11:49:55.315Z,62.61
2022-11-05T11:52:31.445Z,63.11
2022-11-05T11:55:22.687Z,61.82
2022-11-05T11:57:56.337Z,61.59
2022-11-05T12:00:27.659Z,62.26
2022-11-05T12:03:18.803Z,62.96
2022-11-05T12:05:54.301Z,62.71
2022-11-05T12:08:50.687Z,62.36
2022-11-05T12:11:30.718Z,60.10
2022-11-05T12:14:14.461Z,59.15
2022-11-05T12:17:17.832Z,58.56
2022-11-05T12:20:15.974Z,57.29
2022-11-05T12:23:37.995Z,58.24
2022-11-05T12:26:18.428Z,57.86
2022-11-05T12:29:24.868Z,58.29
2022-11-05T12:32:22.264Z,57.92
2022-11-05T12:35:02.017Z,57.99
2022-11-05T12:37:42.419Z,60.06
2022-11-05T12:40:45.732Z,60.48
2022-11-05T12:43:32.419Z,60.38
2022-11-05T12:46:18.619Z,61.00
2022-11-05T12:52:38.209Z,61.24
2022-11-05T12:55:15.149Z,61.44
2022-11-05T12:57:47.515Z,61.05
2022-11-05T13:00:20.691Z,61.11
2022-11-05T13:02:56.574Z,61.44
2022-11-05T13:05:36.840Z,59.60
2022-11-05T13:08:13.819Z,59.11
2022-11-05T13:10:49.625Z,58.72
2022-11-05T13:13:28.189Z,59.83
2022-11-05T13:16:04.246Z,58.44
2022-11-05T13:18:44.351Z,58.44
2022-11-05T13:21:15.481Z,55.96
2022-11-05T13:23:54.046Z,57.46
2022-11-05T13:26:31.307Z,57.34
2022-11-05T13:29:09.433Z,56.37
2022-11-05T13:31:47.452Z,56.27
2022-11-05T13:34:17.349Z,56.92
2022-11-05T13:37:13.022Z,57.70
2022-11-05T13:39:50.978Z,59.30
2022-11-05T13:42:55.040Z,58.67
2022-11-05T13:45:53.388Z,59.47
2022-11-05T13:48:45.992Z,59.74
2022-11-05T13:51:44.057Z,60.00
2022-11-05T13:54:52.537Z,60.41
2022-11-05T13:57:59.295Z,60.88
2022-11-05T14:00:33.397Z,61.55
2022-11-05T14:03:07.225Z,61.86
2022-11-05T14:05:40.172Z,62.02
2022-11-05T14:08:14.416Z,62.46
2022-11-05T14:10:57.656Z,62.51
2022-11-05T14:13:33.501Z,62.53
2022-11-05T14:16:10.661Z,63.09
2022-11-05T14:18:45.338Z,63.58
2022-11-05T14:21:49.755Z,63.67
2022-11-05T14:24:43.375Z,63.51
2022-11-05T14:27:49.656Z,64.40
2022-11-05T14:30:46.513Z,64.47
2022-11-05T14:33:32.356Z,64.76
2022-11-05T14:36:39.404Z,65.02
2022-11-05T14:39:27.292Z,65.14
2022-11-05T14:42:04.952Z,65.56
2022-11-05T14:44:38.172Z,65.88
2022-11-05T14:47:24.828Z,66.35
2022-11-05T14:50:02.408Z,66.52
2022-11-05T14:52:32.824Z,66.64
2022-11-05T14:55:03.129Z,66.71
2022-11-05T14:58:07.053Z,67.41
2022-11-05T15:00:50.512Z,68.21
2022-11-05T15:04:19.892Z,68.88
2022-11-05T15:07:38.545Z,69.54
2022-11-05T15:10:15.605Z,69.83
2022-11-05T15:12:49.773Z,70.20
2022-11-05T15:15:25.624Z,70.65
2022-11-05T15:18:05.444Z,70.81
2022-11-05T15:20:41.702Z,71.36
2022-11-05T15:23:16.170Z,71.61
2022-11-05T15:25:56.837Z,71.56
2022-11-05T15:28:36.122Z,72.10
2022-11-05T15:31:24.426Z,71.97
2022-11-05T15:34:20.091Z,72.64
2022-11-05T15:36:53.864Z,73.08
2022-11-05T15:39:33.252Z,72.49
2022-11-05T15:42:06.627Z,72.82
2022-11-05T15:44:42.675Z,72.73
2022-11-05T15:47:21.095Z,73.83
2022-11-05T15:52:20.723Z,73.61
2022-11-05T15:55:12.291Z,73.28
2022-11-05T15:57:50.642Z,72.49
2022-11-05T16:00:25.370Z,72.60
2022-11-05T16:02:59.144Z,72.37
2022-11-05T16:05:32.869Z,72.06
2022-11-05T16:08:05.910Z,71.62
2022-11-05T16:10:39.042Z,71.32
2022-11-05T16:13:34.150Z,71.04
2022-11-05T16:16:08.347Z,71.35
2022-11-05T16:18:40.362Z,71.03
2022-11-05T16:21:12.432Z,71.04
2022-11-05T16:23:47.532Z,71.45
2022-11-05T16:29:31.903Z,71.65
2022-11-05T16:32:06.980Z,71.99
2022-11-05T16:34:40.760Z,72.72
2022-11-05T16:37:14.919Z,72.67
2022-11-05T16:39:46.316Z,72.79
2022-11-05T16:42:41.184Z,73.35
2022-11-05T16:45:15.312Z,73.35
2022-11-05T16:47:46.308Z,73.23
2022-11-05T16:50:22.151Z,73.20
2022-11-05T16:52:52.496Z,73.40
2022-11-05T16:55:23.921Z,73.48
2022-11-05T16:57:56.461Z,73.38
2022-11-05T17:00:27.612Z,73.70
2022-11-05T17:02:57.963Z,73.59
2022-11-05T17:05:30.751Z,73.87
2022-11-05T17:08:03.751Z,73.47
2022-11-05T17:10:35.351Z,73.50
2022-11-05T17:13:05.170Z,73.61
2022-11-05T17:15:36.980Z,73.98
2022-11-05T17:18:08.063Z,75.49
2022-11-05T17:20:41.982Z,75.27
2022-11-05T17:23:13.504Z,76.45
2022-11-05T17:25:48.934Z,76.58
2022-11-05T17:28:19.751Z,77.12
2022-11-05T17:30:53.197Z,77.53
2022-11-05T17:33:24.467Z,78.01
2022-11-05T17:35:55.333Z,77.62
2022-11-05T17:38:27.433Z,78.18
2022-11-05T17:40:58.958Z,78.64
2022-11-05T17:43:28.885Z,79.24
2022-11-05T17:46:04.076Z,78.49
2022-11-05T17:48:34.555Z,79.09
2022-11-05T17:51:04.797Z,79.54
2022-11-05T17:53:34.653Z,79.74
2022-11-05T17:56:11.232Z,79.57
2022-11-05T17:58:41.863Z,79.71
2022-11-05T18:01:28.121Z,80.69
2022-11-05T18:04:01.245Z,81.26
2022-11-05T18:06:33.887Z,81.09
2022-11-05T18:09:03.804Z,80.73
2022-11-05T18:11:36.389Z,80.76
2022-11-05T18:14:06.334Z,80.82
2022-11-05T18:16:36.476Z,81.59
2022-11-05T18:19:07.031Z,81.04
2022-11-05T18:21:36.964Z,80.84
2022-11-05T18:24:07.833Z,81.49
2022-11-05T18:26:39.222Z,83.52
2022-11-05T18:29:09.180Z,83.07
2022-11-05T18:31:39.110Z,82.45
2022-11-05T18:34:10.720Z,82.82
2022-11-05T18:36:40.702Z,83.34
2022-11-05T18:39:10.576Z,82.95
2022-11-05T18:41:42.207Z,82.87
2022-11-05T18:44:15.182Z,82.95
2022-11-05T18:46:58.037Z,82.68
2022-11-05T18:52:18.122Z,83.54
2022-11-05T18:54:47.998Z,83.13
2022-11-05T18:57:17.992Z,83.27
2022-11-05T18:59:48.264Z,83.60
2022-11-05T19:02:18.488Z,82.82
2022-11-05T19:05:13.823Z,84.02
2022-11-05T19:07:41.226Z,84.01
2022-11-05T19:10:11.319Z,84.28
2022-11-05T19:12:41.187Z,84.02
2022-11-05T19:15:12.881Z,83.41
2022-11-05T19:17:42.921Z,83.98
2022-11-05T19:20:14.022Z,83.93
2022-11-05T19:22:45.380Z,84.67
2022-11-05T19:25:15.275Z,86.90
2022-11-05T19:27:45.214Z,86.16
2022-11-05T19:30:15.589Z,84.43
2022-11-05T19:32:45.347Z,83.84
2022-11-05T19:35:15.170Z,83.37
2022-11-05T19:37:46.920Z,81.98
2022-11-05T19:40:16.765Z,81.27
2022-11-05T19:42:46.632Z,82.50
2022-11-05T19:45:42.821Z,83.81
2022-11-05T19:48:07.983Z,84.14
2022-11-05T19:50:41.616Z,83.55
2022-11-05T19:53:13.696Z,82.77
2022-11-05T19:55:45.376Z,81.70
2022-11-05T19:58:15.442Z,81.37
2022-11-05T20:00:45.781Z,81.60
2022-11-05T20:03:15.749Z,81.83
2022-11-05T20:05:45.836Z,81.50
2022-11-05T20:08:17.157Z,81.15
2022-11-05T20:10:47.129Z,79.86
2022-11-05T20:13:19.979Z,79.32
2022-11-05T20:15:50.416Z,78.64
2022-11-05T20:18:20.759Z,79.01
2022-11-05T20:20:51.313Z,78.90
2022-11-05T20:23:22.719Z,79.53
2022-11-05T20:25:52.600Z,79.41
2022-11-05T20:28:22.442Z,79.70
2022-11-05T20:30:52.304Z,79.31
2022-11-05T20:33:22.359Z,79.49
2022-11-05T20:35:52.251Z,79.71
2022-11-05T20:38:23.952Z,79.84
2022-11-05T20:40:53.898Z,79.91
2022-11-05T20:43:29.166Z,79.23
2022-11-05T20:46:01.302Z,79.37
2022-11-05T20:48:34.326Z,79.09
2022-11-05T20:51:08.635Z,79.52
2022-11-05T20:53:41.293Z,79.67
2022-11-05T20:56:17.195Z,79.04
2022-11-05T20:58:47.716Z,78.41
2022-11-05T21:01:18.529Z,78.48
2022-11-05T21:03:49.572Z,77.93
2022-11-05T21:06:20.235Z,78.32
2022-11-05T21:08:52.625Z,78.35
2022-11-05T21:11:23.011Z,78.27
2022-11-05T21:13:53.155Z,78.51
2022-11-05T21:16:23.024Z,78.38
2022-11-05T21:18:52.881Z,78.60
2022-11-05T21:21:23.560Z,79.23
2022-11-05T21:23:54.861Z,79.14
2022-11-05T21:26:24.847Z,80.12
2022-11-05T21:28:54.767Z,80.48
2022-11-05T21:31:24.985Z,79.73
2022-11-05T21:33:55.468Z,80.58
2022-11-05T21:36:25.504Z,80.87
2022-11-05T21:38:57.015Z,81.13
2022-11-05T21:41:27.094Z,80.72
2022-11-05T21:43:57.001Z,81.01
2022-11-05T21:46:27.349Z,80.58
2022-11-05T21:52:34.801Z,81.47
2022-11-05T21:55:21.920Z,82.25
2022-11-05T21:58:09.446Z,82.58
2022-11-05T22:00:39.863Z,82.64
2022-11-05T22:03:09.737Z,82.28
2022-11-05T22:05:39.660Z,82.84
2022-11-05T22:08:11.322Z,82.66
2022-11-05T22:10:41.575Z,82.69
2022-11-05T22:13:11.456Z,83.07
2022-11-05T22:15:41.456Z,82.73
2022-11-05T22:18:11.510Z,82.94
2022-11-05T22:20:41.830Z,83.25
2022-11-05T22:23:13.100Z,83.78
2022-11-05T22:25:42.915Z,83.51
2022-11-05T22:28:13.233Z,84.29
2022-11-05T22:30:43.432Z,84.85
2022-11-05T22:33:13.321Z,84.71
2022-11-05T22:35:43.049Z,85.16
2022-11-05T22:38:14.709Z,85.46
2022-11-05T22:40:44.816Z,85.17
2022-11-05T22:43:15.019Z,85.08
2022-11-05T22:45:45.930Z,85.24
2022-11-05T22:48:16.290Z,86.67
2022-11-05T22:50:46.295Z,86.24
2022-11-05T22:53:17.735Z,86.24
2022-11-05T22:55:47.666Z,86.35
2022-11-05T22:58:17.560Z,86.33
2022-11-05T23:00:47.349Z,86.71
2022-11-05T23:03:17.462Z,86.98
2022-11-05T23:05:47.256Z,87.52
2022-11-05T23:08:35.534Z,87.28
2022-11-05T23:11:22.767Z,88.17
2022-11-05T23:13:52.657Z,87.91
2022-11-05T23:16:39.884Z,88.40
2022-11-05T23:19:27.503Z,88.94
2022-11-05T23:22:14.830Z,89.17
2022-11-05T23:24:46.193Z,89.91
2022-11-05T23:27:16.272Z,89.70
2022-11-05T23:29:46.160Z,90.05
2022-11-05T23:32:28.776Z,90.66
2022-11-05T23:35:00.243Z,91.02
2022-11-05T23:37:49.428Z,91.67
2022-11-05T23:40:23.194Z,91.52
2022-11-05T23:43:15.811Z,91.65
2022-11-05T23:46:04.478Z,92.18
2022-11-05T23:48:36.638Z,91.61
2022-11-05T23:51:09.459Z,91.77
2022-11-05T23:53:41.715Z,91.88
2022-11-05T23:56:16.046Z,91.62
2022-11-05T23:58:46.407Z,91.96
